sensor_id;sensor_type;location;lat;lon;timestamp;temperature;humidity
18781;DHT22;9519;51.890;8.970;2022-09-02T00:02:53;14.60;61.80
18781;DHT22;9519;51.890;8.970;2022-09-02T00:07:56;14.60;62.20
18781;DHT22;9519;51.890;8.970;2022-09-02T00:12:58;14.50;62.40
18781;DHT22;9519;51.890;8.970;2022-09-02T00:18:02;14.40;62.70
18781;DHT22;9519;51.890;8.970;2022-09-02T00:23:06;14.30;63.00
18781;DHT22;9519;51.890;8.970;2022-09-02T00:28:10;14.30;63.20
18781;DHT22;9519;51.890;8.970;2022-09-02T00:33:15;14.20;63.50
18781;DHT22;9519;51.890;8.970;2022-09-02T00:38:18;14.20;63.80
18781;DHT22;9519;51.890;8.970;2022-09-02T00:43:25;14.20;63.90
18781;DHT22;9519;51.890;8.970;2022-09-02T00:48:46;14.20;64.30
18781;DHT22;9519;51.890;8.970;2022-09-02T00:53:53;14.10;64.30
18781;DHT22;9519;51.890;8.970;2022-09-02T00:58:55;14.10;64.50
18781;DHT22;9519;51.890;8.970;2022-09-02T01:04:01;13.90;64.70
18781;DHT22;9519;51.890;8.970;2022-09-02T01:09:07;13.90;65.00
18781;DHT22;9519;51.890;8.970;2022-09-02T01:14:13;13.80;65.40
18781;DHT22;9519;51.890;8.970;2022-09-02T01:19:21;13.70;65.50
18781;DHT22;9519;51.890;8.970;2022-09-02T01:24:29;13.60;66.00
18781;DHT22;9519;51.890;8.970;2022-09-02T01:29:34;13.60;66.20
18781;DHT22;9519;51.890;8.970;2022-09-02T01:34:36;13.50;66.30
18781;DHT22;9519;51.890;8.970;2022-09-02T01:39:40;13.40;66.50
18781;DHT22;9519;51.890;8.970;2022-09-02T01:44:42;13.30;66.70
18781;DHT22;9519;51.890;8.970;2022-09-02T01:49:45;13.20;66.80
18781;DHT22;9519;51.890;8.970;2022-09-02T01:54:50;13.10;67.00
18781;DHT22;9519;51.890;8.970;2022-09-02T01:59:53;13.10;67.50
18781;DHT22;9519;51.890;8.970;2022-09-02T02:04:56;13.00;67.60
18781;DHT22;9519;51.890;8.970;2022-09-02T02:09:59;12.90;68.50
18781;DHT22;9519;51.890;8.970;2022-09-02T02:15:02;12.80;68.10
18781;DHT22;9519;51.890;8.970;2022-09-02T02:20:07;12.70;68.20
18781;DHT22;9519;51.890;8.970;2022-09-02T02:25:13;12.70;68.70
18781;DHT22;9519;51.890;8.970;2022-09-02T02:30:19;12.60;68.80
18781;DHT22;9519;51.890;8.970;2022-09-02T02:35:22;12.60;69.10
18781;DHT22;9519;51.890;8.970;2022-09-02T02:40:27;12.50;69.40
18781;DHT22;9519;51.890;8.970;2022-09-02T02:45:29;12.40;69.70
18781;DHT22;9519;51.890;8.970;2022-09-02T02:50:31;12.40;69.80
18781;DHT22;9519;51.890;8.970;2022-09-02T02:55:36;12.30;70.80
18781;DHT22;9519;51.890;8.970;2022-09-02T03:00:39;12.20;70.30
18781;DHT22;9519;51.890;8.970;2022-09-02T03:05:45;12.20;70.60
18781;DHT22;9519;51.890;8.970;2022-09-02T03:10:50;12.10;70.80
18781;DHT22;9519;51.890;8.970;2022-09-02T03:15:53;12.10;71.20
18781;DHT22;9519;51.890;8.970;2022-09-02T03:20:56;12.00;71.30
18781;DHT22;9519;51.890;8.970;2022-09-02T03:26:00;12.00;71.50
18781;DHT22;9519;51.890;8.970;2022-09-02T03:31:02;11.90;71.80
18781;DHT22;9519;51.890;8.970;2022-09-02T03:36:05;11.90;72.00
18781;DHT22;9519;51.890;8.970;2022-09-02T03:41:09;11.90;72.40
18781;DHT22;9519;51.890;8.970;2022-09-02T03:46:12;11.90;72.70
18781;DHT22;9519;51.890;8.970;2022-09-02T03:51:14;11.80;72.80
18781;DHT22;9519;51.890;8.970;2022-09-02T03:56:24;11.80;73.20
18781;DHT22;9519;51.890;8.970;2022-09-02T04:01:29;11.70;73.50
18781;DHT22;9519;51.890;8.970;2022-09-02T04:06:32;11.70;73.60
18781;DHT22;9519;51.890;8.970;2022-09-02T04:11:42;11.70;73.90
18781;DHT22;9519;51.890;8.970;2022-09-02T04:23:00;11.60;74.70
18781;DHT22;9519;51.890;8.970;2022-09-02T04:28:04;11.50;74.60
18781;DHT22;9519;51.890;8.970;2022-09-02T04:33:06;11.50;75.20
18781;DHT22;9519;51.890;8.970;2022-09-02T04:38:08;11.50;75.30
18781;DHT22;9519;51.890;8.970;2022-09-02T04:43:13;11.40;75.60
18781;DHT22;9519;51.890;8.970;2022-09-02T04:48:16;11.40;75.90
18781;DHT22;9519;51.890;8.970;2022-09-02T04:53:19;11.40;77.30
18781;DHT22;9519;51.890;8.970;2022-09-02T04:58:22;11.50;77.90
18781;DHT22;9519;51.890;8.970;2022-09-02T05:03:29;11.50;78.30
18781;DHT22;9519;51.890;8.970;2022-09-02T05:08:32;11.60;78.90
18781;DHT22;9519;51.890;8.970;2022-09-02T05:13:40;11.60;79.00
18781;DHT22;9519;51.890;8.970;2022-09-02T05:18:42;11.60;79.50
18781;DHT22;9519;51.890;8.970;2022-09-02T05:23:45;11.70;80.00
18781;DHT22;9519;51.890;8.970;2022-09-02T05:28:52;11.90;80.20
18781;DHT22;9519;51.890;8.970;2022-09-02T05:33:54;11.90;80.00
18781;DHT22;9519;51.890;8.970;2022-09-02T05:38:56;12.10;79.90
18781;DHT22;9519;51.890;8.970;2022-09-02T05:44:02;12.10;79.90
18781;DHT22;9519;51.890;8.970;2022-09-02T05:49:06;12.10;80.00
18781;DHT22;9519;51.890;8.970;2022-09-02T05:54:11;12.20;80.00
18781;DHT22;9519;51.890;8.970;2022-09-02T05:59:17;12.30;80.10
18781;DHT22;9519;51.890;8.970;2022-09-02T06:04:20;12.40;80.40
18781;DHT22;9519;51.890;8.970;2022-09-02T06:09:23;12.50;80.30
18781;DHT22;9519;51.890;8.970;2022-09-02T06:14:29;12.50;80.50
18781;DHT22;9519;51.890;8.970;2022-09-02T06:19:31;12.70;80.70
18781;DHT22;9519;51.890;8.970;2022-09-02T06:24:33;12.70;80.80
18781;DHT22;9519;51.890;8.970;2022-09-02T06:29:37;12.90;81.00
18781;DHT22;9519;51.890;8.970;2022-09-02T06:34:39;13.00;81.30
18781;DHT22;9519;51.890;8.970;2022-09-02T06:39:41;13.20;81.50
18781;DHT22;9519;51.890;8.970;2022-09-02T06:44:47;13.40;81.60
18781;DHT22;9519;51.890;8.970;2022-09-02T06:49:49;13.50;81.70
18781;DHT22;9519;51.890;8.970;2022-09-02T06:54:54;13.70;81.90
18781;DHT22;9519;51.890;8.970;2022-09-02T07:00:00;13.90;81.90
18781;DHT22;9519;51.890;8.970;2022-09-02T07:05:04;14.10;82.00
18781;DHT22;9519;51.890;8.970;2022-09-02T07:10:15;14.30;82.10
18781;DHT22;9519;51.890;8.970;2022-09-02T07:15:23;14.50;82.10
18781;DHT22;9519;51.890;8.970;2022-09-02T07:20:26;14.80;82.20
18781;DHT22;9519;51.890;8.970;2022-09-02T07:25:28;15.00;82.20
18781;DHT22;9519;51.890;8.970;2022-09-02T07:30:32;15.30;82.40
18781;DHT22;9519;51.890;8.970;2022-09-02T07:35:35;15.50;82.20
18781;DHT22;9519;51.890;8.970;2022-09-02T07:40:39;15.80;81.90
18781;DHT22;9519;51.890;8.970;2022-09-02T07:45:44;16.00;81.60
18781;DHT22;9519;51.890;8.970;2022-09-02T07:50:47;16.20;81.40
18781;DHT22;9519;51.890;8.970;2022-09-02T07:55:49;16.50;81.20
18781;DHT22;9519;51.890;8.970;2022-09-02T08:00:54;16.70;80.90
18781;DHT22;9519;51.890;8.970;2022-09-02T08:05:57;16.90;80.50
18781;DHT22;9519;51.890;8.970;2022-09-02T08:11:00;17.10;80.90
18781;DHT22;9519;51.890;8.970;2022-09-02T08:16:05;17.40;79.90
18781;DHT22;9519;51.890;8.970;2022-09-02T08:21:07;17.60;79.60
18781;DHT22;9519;51.890;8.970;2022-09-02T08:26:09;17.80;80.00
18781;DHT22;9519;51.890;8.970;2022-09-02T08:31:13;18.00;79.00
18781;DHT22;9519;51.890;8.970;2022-09-02T08:36:15;18.30;78.60
18781;DHT22;9519;51.890;8.970;2022-09-02T08:41:21;18.50;78.40
18781;DHT22;9519;51.890;8.970;2022-09-02T08:46:27;18.60;78.00
18781;DHT22;9519;51.890;8.970;2022-09-02T08:51:36;18.90;77.80
18781;DHT22;9519;51.890;8.970;2022-09-02T08:56:42;19.10;77.10
18781;DHT22;9519;51.890;8.970;2022-09-02T09:01:50;19.30;76.20
18781;DHT22;9519;51.890;8.970;2022-09-02T09:07:11;19.50;75.00
18781;DHT22;9519;51.890;8.970;2022-09-02T09:12:29;19.70;74.60
18781;DHT22;9519;51.890;8.970;2022-09-02T09:17:48;19.90;73.70
18781;DHT22;9519;51.890;8.970;2022-09-02T09:22:55;20.10;73.40
18781;DHT22;9519;51.890;8.970;2022-09-02T09:28:01;20.30;72.40
18781;DHT22;9519;51.890;8.970;2022-09-02T09:33:05;20.50;72.20
18781;DHT22;9519;51.890;8.970;2022-09-02T09:38:11;20.70;71.50
18781;DHT22;9519;51.890;8.970;2022-09-02T09:43:15;20.90;71.00
18781;DHT22;9519;51.890;8.970;2022-09-02T09:48:21;21.10;70.20
18781;DHT22;9519;51.890;8.970;2022-09-02T09:53:28;21.20;68.70
18781;DHT22;9519;51.890;8.970;2022-09-02T09:58:35;21.30;68.40
18781;DHT22;9519;51.890;8.970;2022-09-02T10:03:51;21.50;68.20
18781;DHT22;9519;51.890;8.970;2022-09-02T10:08:58;21.70;66.50
18781;DHT22;9519;51.890;8.970;2022-09-02T10:14:02;21.90;65.60
18781;DHT22;9519;51.890;8.970;2022-09-02T10:19:16;21.90;64.60
18781;DHT22;9519;51.890;8.970;2022-09-02T10:24:40;22.10;64.00
18781;DHT22;9519;51.890;8.970;2022-09-02T10:29:54;22.20;62.50
18781;DHT22;9519;51.890;8.970;2022-09-02T10:35:11;22.30;61.80
18781;DHT22;9519;51.890;8.970;2022-09-02T10:40:23;22.50;60.70
18781;DHT22;9519;51.890;8.970;2022-09-02T10:45:33;22.50;61.10
18781;DHT22;9519;51.890;8.970;2022-09-02T10:50:43;22.70;59.90
18781;DHT22;9519;51.890;8.970;2022-09-02T10:55:55;22.80;59.00
18781;DHT22;9519;51.890;8.970;2022-09-02T11:01:00;22.90;58.60
18781;DHT22;9519;51.890;8.970;2022-09-02T11:06:10;23.00;58.40
18781;DHT22;9519;51.890;8.970;2022-09-02T11:11:19;23.00;57.80
18781;DHT22;9519;51.890;8.970;2022-09-02T11:16:29;23.10;56.80
18781;DHT22;9519;51.890;8.970;2022-09-02T11:21:51;23.20;57.10
18781;DHT22;9519;51.890;8.970;2022-09-02T11:27:04;23.30;55.70
18781;DHT22;9519;51.890;8.970;2022-09-02T11:32:16;23.40;55.70
18781;DHT22;9519;51.890;8.970;2022-09-02T11:37:29;23.60;55.40
18781;DHT22;9519;51.890;8.970;2022-09-02T11:42:55;23.70;55.00
18781;DHT22;9519;51.890;8.970;2022-09-02T11:48:34;23.80;54.80
18781;DHT22;9519;51.890;8.970;2022-09-02T11:54:01;23.80;53.60
18781;DHT22;9519;51.890;8.970;2022-09-02T11:59:05;23.80;54.00
18781;DHT22;9519;51.890;8.970;2022-09-02T12:04:19;24.00;54.10
18781;DHT22;9519;51.890;8.970;2022-09-02T12:15:01;24.20;53.90
18781;DHT22;9519;51.890;8.970;2022-09-02T12:26:05;24.60;52.00
18781;DHT22;9519;51.890;8.970;2022-09-02T12:31:13;24.60;52.50
18781;DHT22;9519;51.890;8.970;2022-09-02T12:36:43;24.60;52.50
18781;DHT22;9519;51.890;8.970;2022-09-02T12:41:48;24.50;52.30
18781;DHT22;9519;51.890;8.970;2022-09-02T12:47:04;24.50;52.20
18781;DHT22;9519;51.890;8.970;2022-09-02T12:52:11;24.50;51.90
18781;DHT22;9519;51.890;8.970;2022-09-02T12:57:40;24.50;52.00
18781;DHT22;9519;51.890;8.970;2022-09-02T13:02:50;24.60;51.60
18781;DHT22;9519;51.890;8.970;2022-09-02T13:08:30;24.60;51.30
18781;DHT22;9519;51.890;8.970;2022-09-02T13:14:33;24.80;51.90
18781;DHT22;9519;51.890;8.970;2022-09-02T13:20:14;24.90;51.20
18781;DHT22;9519;51.890;8.970;2022-09-02T13:25:59;25.00;50.90
18781;DHT22;9519;51.890;8.970;2022-09-02T13:31:18;25.10;51.00
18781;DHT22;9519;51.890;8.970;2022-09-02T13:36:27;25.10;50.40
18781;DHT22;9519;51.890;8.970;2022-09-02T13:41:32;25.00;50.40
18781;DHT22;9519;51.890;8.970;2022-09-02T13:46:47;24.90;50.50
18781;DHT22;9519;51.890;8.970;2022-09-02T13:51:53;24.80;50.40
18781;DHT22;9519;51.890;8.970;2022-09-02T13:56:57;24.80;50.60
18781;DHT22;9519;51.890;8.970;2022-09-02T14:02:24;24.90;50.20
18781;DHT22;9519;51.890;8.970;2022-09-02T14:07:35;25.10;50.40
18781;DHT22;9519;51.890;8.970;2022-09-02T14:12:41;25.20;49.90
18781;DHT22;9519;51.890;8.970;2022-09-02T14:18:06;25.20;49.80
18781;DHT22;9519;51.890;8.970;2022-09-02T14:23:14;25.10;49.10
18781;DHT22;9519;51.890;8.970;2022-09-02T14:28:20;25.00;49.30
18781;DHT22;9519;51.890;8.970;2022-09-02T14:33:35;25.00;49.30
18781;DHT22;9519;51.890;8.970;2022-09-02T14:38:50;25.30;48.90
18781;DHT22;9519;51.890;8.970;2022-09-02T14:43:57;25.80;48.60
18781;DHT22;9519;51.890;8.970;2022-09-02T14:49:04;26.60;49.00
18781;DHT22;9519;51.890;8.970;2022-09-02T14:54:08;27.20;47.00
18781;DHT22;9519;51.890;8.970;2022-09-02T14:59:10;27.40;47.00
18781;DHT22;9519;51.890;8.970;2022-09-02T15:04:14;27.60;46.10
18781;DHT22;9519;51.890;8.970;2022-09-02T15:09:19;27.40;45.50
18781;DHT22;9519;51.890;8.970;2022-09-02T15:14:21;27.10;45.60
18781;DHT22;9519;51.890;8.970;2022-09-02T15:19:26;26.70;45.80
18781;DHT22;9519;51.890;8.970;2022-09-02T15:24:28;26.30;45.90
18781;DHT22;9519;51.890;8.970;2022-09-02T15:29:30;26.30;46.10
18781;DHT22;9519;51.890;8.970;2022-09-02T15:34:34;26.70;46.70
18781;DHT22;9519;51.890;8.970;2022-09-02T15:39:36;27.10;46.20
18781;DHT22;9519;51.890;8.970;2022-09-02T15:44:38;27.50;45.30
18781;DHT22;9519;51.890;8.970;2022-09-02T15:49:42;27.30;44.60
18781;DHT22;9519;51.890;8.970;2022-09-02T15:54:44;27.00;44.80
18781;DHT22;9519;51.890;8.970;2022-09-02T15:59:46;26.60;44.80
18781;DHT22;9519;51.890;8.970;2022-09-02T16:04:49;26.30;45.20
18781;DHT22;9519;51.890;8.970;2022-09-02T16:09:51;25.90;45.40
18781;DHT22;9519;51.890;8.970;2022-09-02T16:14:54;25.60;46.00
18781;DHT22;9519;51.890;8.970;2022-09-02T16:19:57;25.40;46.10
18781;DHT22;9519;51.890;8.970;2022-09-02T16:24:59;25.20;46.40
18781;DHT22;9519;51.890;8.970;2022-09-02T16:30:01;25.10;46.40
18781;DHT22;9519;51.890;8.970;2022-09-02T16:35:06;25.00;46.80
18781;DHT22;9519;51.890;8.970;2022-09-02T16:40:09;24.90;46.80
18781;DHT22;9519;51.890;8.970;2022-09-02T16:45:12;24.80;46.90
18781;DHT22;9519;51.890;8.970;2022-09-02T16:50:16;24.70;47.20
18781;DHT22;9519;51.890;8.970;2022-09-02T16:55:19;24.60;47.30
18781;DHT22;9519;51.890;8.970;2022-09-02T17:00:21;24.50;47.30
18781;DHT22;9519;51.890;8.970;2022-09-02T17:05:25;24.40;47.60
18781;DHT22;9519;51.890;8.970;2022-09-02T17:10:27;24.20;47.70
18781;DHT22;9519;51.890;8.970;2022-09-02T17:15:30;24.00;47.90
18781;DHT22;9519;51.890;8.970;2022-09-02T17:20:34;23.80;48.30
18781;DHT22;9519;51.890;8.970;2022-09-02T17:25:36;23.60;48.50
18781;DHT22;9519;51.890;8.970;2022-09-02T17:30:38;23.40;48.80
18781;DHT22;9519;51.890;8.970;2022-09-02T17:35:41;23.20;49.30
18781;DHT22;9519;51.890;8.970;2022-09-02T17:40:43;23.00;49.70
18781;DHT22;9519;51.890;8.970;2022-09-02T17:46:04;22.80;49.90
18781;DHT22;9519;51.890;8.970;2022-09-02T17:51:08;22.60;50.00
18781;DHT22;9519;51.890;8.970;2022-09-02T18:07:56;22.10;50.50
18781;DHT22;9519;51.890;8.970;2022-09-02T18:13:03;21.90;51.40
18781;DHT22;9519;51.890;8.970;2022-09-02T18:18:09;21.70;50.90
18781;DHT22;9519;51.890;8.970;2022-09-02T18:23:28;21.50;51.30
18781;DHT22;9519;51.890;8.970;2022-09-02T18:28:49;21.30;51.60
18781;DHT22;9519;51.890;8.970;2022-09-02T18:34:08;21.10;52.00
18781;DHT22;9519;51.890;8.970;2022-09-02T18:39:32;20.90;52.10
18781;DHT22;9519;51.890;8.970;2022-09-02T18:44:54;20.70;52.30
18781;DHT22;9519;51.890;8.970;2022-09-02T18:50:04;20.50;52.40
18781;DHT22;9519;51.890;8.970;2022-09-02T18:55:14;20.40;52.40
18781;DHT22;9519;51.890;8.970;2022-09-02T19:00:17;20.30;52.70
18781;DHT22;9519;51.890;8.970;2022-09-02T19:05:26;20.10;52.70
18781;DHT22;9519;51.890;8.970;2022-09-02T19:10:31;20.00;52.90
18781;DHT22;9519;51.890;8.970;2022-09-02T19:15:33;19.80;53.00
18781;DHT22;9519;51.890;8.970;2022-09-02T19:20:36;19.80;53.30
18781;DHT22;9519;51.890;8.970;2022-09-02T19:25:41;19.60;53.40
18781;DHT22;9519;51.890;8.970;2022-09-02T19:30:46;19.50;53.60
18781;DHT22;9519;51.890;8.970;2022-09-02T19:35:49;19.40;53.80
18781;DHT22;9519;51.890;8.970;2022-09-02T19:40:53;19.30;53.90
18781;DHT22;9519;51.890;8.970;2022-09-02T19:45:56;19.30;54.00
18781;DHT22;9519;51.890;8.970;2022-09-02T19:50:59;19.20;54.00
18781;DHT22;9519;51.890;8.970;2022-09-02T19:56:02;19.10;54.10
18781;DHT22;9519;51.890;8.970;2022-09-02T20:01:07;19.10;54.40
18781;DHT22;9519;51.890;8.970;2022-09-02T20:06:09;18.90;54.40
18781;DHT22;9519;51.890;8.970;2022-09-02T20:11:14;18.90;54.50
18781;DHT22;9519;51.890;8.970;2022-09-02T20:16:19;18.70;54.60
18781;DHT22;9519;51.890;8.970;2022-09-02T20:21:25;18.70;54.80
18781;DHT22;9519;51.890;8.970;2022-09-02T20:26:38;18.60;54.90
18781;DHT22;9519;51.890;8.970;2022-09-02T20:32:02;18.50;55.10
18781;DHT22;9519;51.890;8.970;2022-09-02T20:37:19;18.40;55.30
18781;DHT22;9519;51.890;8.970;2022-09-02T20:42:46;18.40;55.50
18781;DHT22;9519;51.890;8.970;2022-09-02T20:48:04;18.30;55.60
18781;DHT22;9519;51.890;8.970;2022-09-02T20:53:37;18.20;55.60
18781;DHT22;9519;51.890;8.970;2022-09-02T20:59:01;18.20;55.90
18781;DHT22;9519;51.890;8.970;2022-09-02T21:04:25;18.10;55.90
18781;DHT22;9519;51.890;8.970;2022-09-02T21:09:41;18.00;55.90
18781;DHT22;9519;51.890;8.970;2022-09-02T21:14:57;18.00;56.00
18781;DHT22;9519;51.890;8.970;2022-09-02T21:20:10;18.00;56.20
18781;DHT22;9519;51.890;8.970;2022-09-02T21:25:22;17.90;56.30
18781;DHT22;9519;51.890;8.970;2022-09-02T21:30:35;17.80;56.40
18781;DHT22;9519;51.890;8.970;2022-09-02T21:35:43;17.70;56.50
18781;DHT22;9519;51.890;8.970;2022-09-02T21:41:01;17.70;56.60
18781;DHT22;9519;51.890;8.970;2022-09-02T21:46:21;17.60;56.90
18781;DHT22;9519;51.890;8.970;2022-09-02T21:51:35;17.50;56.90
18781;DHT22;9519;51.890;8.970;2022-09-02T21:56:54;17.50;57.10
18781;DHT22;9519;51.890;8.970;2022-09-02T22:02:13;17.40;57.30
18781;DHT22;9519;51.890;8.970;2022-09-02T22:07:24;17.40;57.40
18781;DHT22;9519;51.890;8.970;2022-09-02T22:12:35;17.30;57.50
18781;DHT22;9519;51.890;8.970;2022-09-02T22:17:45;17.20;57.60
18781;DHT22;9519;51.890;8.970;2022-09-02T22:22:53;17.10;57.80
18781;DHT22;9519;51.890;8.970;2022-09-02T22:28:04;17.10;57.90
18781;DHT22;9519;51.890;8.970;2022-09-02T22:33:13;17.00;58.60
18781;DHT22;9519;51.890;8.970;2022-09-02T22:38:22;16.90;58.20
18781;DHT22;9519;51.890;8.970;2022-09-02T22:43:33;16.90;58.90
18781;DHT22;9519;51.890;8.970;2022-09-02T22:48:47;16.80;58.50
18781;DHT22;9519;51.890;8.970;2022-09-02T22:54:11;16.70;58.60
18781;DHT22;9519;51.890;8.970;2022-09-02T22:59:32;16.70;58.60
18781;DHT22;9519;51.890;8.970;2022-09-02T23:05:02;16.60;58.90
18781;DHT22;9519;51.890;8.970;2022-09-02T23:10:41;16.60;59.10
18781;DHT22;9519;51.890;8.970;2022-09-02T23:16:01;16.50;59.10
18781;DHT22;9519;51.890;8.970;2022-09-02T23:21:18;16.50;59.30
18781;DHT22;9519;51.890;8.970;2022-09-02T23:26:34;16.40;59.30
18781;DHT22;9519;51.890;8.970;2022-09-02T23:31:58;16.30;59.40
18781;DHT22;9519;51.890;8.970;2022-09-02T23:37:33;16.30;59.60
18781;DHT22;9519;51.890;8.970;2022-09-02T23:42:43;16.30;59.80
18781;DHT22;9519;51.890;8.970;2022-09-02T23:48:17;16.20;59.80
18781;DHT22;9519;51.890;8.970;2022-09-02T23:53:43;16.20;60.10
18781;DHT22;9519;51.890;8.970;2022-09-02T23:59:13;16.10;60.00
